createdAt,value
2018-07-21T00:00:21.722Z,50.40
2018-07-21T00:02:51.298Z,50.40
2018-07-21T00:05:23.573Z,50.50
2018-07-21T00:07:52.569Z,50.50
2018-07-21T00:10:23.478Z,50.30
2018-07-21T00:12:53.620Z,50.80
2018-07-21T00:15:22.688Z,51.20
2018-07-21T00:17:52.724Z,52.10
2018-07-21T00:20:29.303Z,52.10
2018-07-21T00:22:58.300Z,52.30
2018-07-21T00:25:27.368Z,52.40
2018-07-21T00:27:56.587Z,51.50
2018-07-21T00:30:27.505Z,51.80
2018-07-21T00:32:58.692Z,51.80
2018-07-21T00:35:30.286Z,51.70
2018-07-21T00:38:01.105Z,51.70
2018-07-21T00:40:33.425Z,51.90
2018-07-21T00:43:02.319Z,52.30
2018-07-21T00:45:31.181Z,52.80
2018-07-21T00:48:00.382Z,53.20
2018-07-21T00:50:29.910Z,52.90
2018-07-21T00:53:00.206Z,52.70
2018-07-21T00:55:31.039Z,52.20
2018-07-21T00:57:59.932Z,52.10
2018-07-21T01:00:28.825Z,51.80
2018-07-21T01:02:57.891Z,52.10
2018-07-21T01:05:29.170Z,52.30
2018-07-21T01:10:30.984Z,52.60
2018-07-21T01:13:00.340Z,52.60
2018-07-21T01:15:29.200Z,53.00
2018-07-21T01:18:00.501Z,53.00
2018-07-21T01:20:29.594Z,53.00
2018-07-21T01:25:37.170Z,53.30
2018-07-21T01:28:06.187Z,53.80
2018-07-21T01:30:35.200Z,53.30
2018-07-21T01:35:34.864Z,53.60
2018-07-21T01:38:04.467Z,53.60
2018-07-21T01:40:33.387Z,53.70
2018-07-21T01:43:02.469Z,53.90
2018-07-21T01:45:31.549Z,53.90
2018-07-21T01:48:00.561Z,54.00
2018-07-21T01:50:29.616Z,54.00
2018-07-21T01:52:59.039Z,54.00
2018-07-21T01:55:27.892Z,54.30
2018-07-21T01:57:57.422Z,53.30
2018-07-21T02:00:28.188Z,53.40
2018-07-21T02:02:57.419Z,54.50
2018-07-21T02:05:26.628Z,55.50
2018-07-21T02:10:24.437Z,55.40
2018-07-21T02:15:24.615Z,55.30
2018-07-21T02:17:53.728Z,54.70
2018-07-21T02:20:23.211Z,54.50
2018-07-21T02:25:22.551Z,54.50
2018-07-21T02:27:51.627Z,54.40
2018-07-21T02:30:31.260Z,54.50
2018-07-21T02:33:03.097Z,54.70
2018-07-21T02:35:32.486Z,55.30
2018-07-21T02:38:02.641Z,56.00
2018-07-21T02:40:31.648Z,56.40
2018-07-21T02:43:00.491Z,56.20
2018-07-21T02:45:29.269Z,56.40
2018-07-21T02:47:58.484Z,65.90
2018-07-21T02:57:53.296Z,65.90
2018-07-21T03:00:22.756Z,66.10
2018-07-21T03:10:17.803Z,66.80
2018-07-21T03:12:48.502Z,66.10
2018-07-21T03:17:47.723Z,60.20
2018-07-21T03:20:18.803Z,57.90
2018-07-21T03:22:47.701Z,57.70
2018-07-21T03:25:16.949Z,57.20
2018-07-21T03:27:46.177Z,57.30
2018-07-21T03:30:15.869Z,57.90
2018-07-21T03:32:44.747Z,57.60
2018-07-21T03:35:13.819Z,57.20
2018-07-21T03:37:42.693Z,56.80
2018-07-21T03:40:11.543Z,56.90
2018-07-21T03:42:40.287Z,56.90
2018-07-21T03:45:09.426Z,56.80
2018-07-21T03:47:38.222Z,56.90
2018-07-21T03:50:07.728Z,56.90
2018-07-21T03:52:36.380Z,57.20
2018-07-21T03:55:05.276Z,57.30
2018-07-21T03:57:34.114Z,57.30
2018-07-21T04:00:03.147Z,56.50
2018-07-21T04:02:31.960Z,56.70
2018-07-21T04:05:00.756Z,56.50
2018-07-21T04:07:29.587Z,56.30
2018-07-21T04:09:58.535Z,56.60
2018-07-21T04:14:56.689Z,56.20
2018-07-21T04:17:26.980Z,55.90
2018-07-21T04:19:56.669Z,56.10
2018-07-21T04:22:26.275Z,56.40
2018-07-21T04:24:57.933Z,56.50
2018-07-21T04:27:27.728Z,57.00
2018-07-21T04:29:56.465Z,57.20
2018-07-21T04:32:25.429Z,57.40
2018-07-21T04:34:55.209Z,57.50
2018-07-21T04:37:28.436Z,57.60
2018-07-21T04:39:57.171Z,57.40
2018-07-21T04:42:28.242Z,57.20
2018-07-21T04:45:00.305Z,57.60
2018-07-21T04:47:29.115Z,57.20
2018-07-21T04:49:57.824Z,57.30
2018-07-21T04:52:26.565Z,57.40
2018-07-21T04:54:55.483Z,57.40
2018-07-21T04:57:24.308Z,57.60
2018-07-21T04:59:54.839Z,57.70
2018-07-21T05:02:23.684Z,58.60
2018-07-21T05:04:52.601Z,58.30
2018-07-21T05:07:21.447Z,58.50
2018-07-21T05:09:51.004Z,59.30
2018-07-21T05:12:19.803Z,59.50
2018-07-21T05:17:18.637Z,59.90
2018-07-21T05:19:47.726Z,59.90
2018-07-21T05:22:16.661Z,59.70
2018-07-21T05:24:46.248Z,59.50
2018-07-21T05:27:17.166Z,59.10
2018-07-21T05:29:46.426Z,59.00
2018-07-21T05:32:15.121Z,59.00
2018-07-21T05:40:04.383Z,58.50
2018-07-21T05:42:33.244Z,58.60
2018-07-21T05:45:02.285Z,58.80
2018-07-21T05:47:31.115Z,58.60
2018-07-21T05:52:40.832Z,58.60
2018-07-21T05:55:11.578Z,58.30
2018-07-21T05:57:41.559Z,58.20
2018-07-21T06:00:16.054Z,58.10
2018-07-21T06:02:52.216Z,58.20
2018-07-21T06:05:21.204Z,57.70
2018-07-21T06:07:50.642Z,57.40
2018-07-21T06:10:20.447Z,57.70
2018-07-21T06:14:31.913Z,58.00
2018-07-21T06:17:02.104Z,59.70
2018-07-21T06:19:31.727Z,59.90
2018-07-21T06:22:02.215Z,60.30
2018-07-21T06:24:30.992Z,59.80
2018-07-21T06:27:00.215Z,59.40
2018-07-21T06:29:30.005Z,58.60
2018-07-21T06:31:59.073Z,57.20
2018-07-21T06:34:28.451Z,56.00
2018-07-21T06:36:57.585Z,54.60
2018-07-21T06:39:29.364Z,53.00
2018-07-21T06:41:59.291Z,51.40
2018-07-21T06:44:28.734Z,50.10
2018-07-21T06:46:59.660Z,49.40
2018-07-21T06:49:28.477Z,49.20
2018-07-21T06:51:57.790Z,50.60
2018-07-21T06:54:27.107Z,49.90
2018-07-21T06:56:57.000Z,51.10
2018-07-21T06:59:27.185Z,51.40
2018-07-21T07:01:56.740Z,49.80
2018-07-21T07:04:52.682Z,49.50
2018-07-21T07:07:25.042Z,49.80
2018-07-21T07:09:54.248Z,49.90
2018-07-21T07:12:23.390Z,49.40
2018-07-21T07:14:54.287Z,49.40
2018-07-21T07:17:25.833Z,48.70
2018-07-21T07:22:41.914Z,46.30
2018-07-21T07:25:12.746Z,41.90
2018-07-21T07:27:41.737Z,40.00
2018-07-21T07:30:10.705Z,38.50
2018-07-21T07:32:39.625Z,37.70
2018-07-21T07:35:11.654Z,36.60
2018-07-21T07:37:41.093Z,35.50
2018-07-21T07:40:09.980Z,35.40
2018-07-21T07:42:38.905Z,36.30
2018-07-21T07:45:07.585Z,38.00
2018-07-21T07:47:37.000Z,37.30
2018-07-21T07:50:07.455Z,36.50
2018-07-21T07:52:37.395Z,39.20
2018-07-21T07:55:06.524Z,39.30
2018-07-21T07:57:35.966Z,39.30
2018-07-21T08:00:21.006Z,39.60
2018-07-21T08:03:00.523Z,41.30
2018-07-21T08:05:29.949Z,39.60
2018-07-21T08:08:01.463Z,39.20
2018-07-21T08:10:31.442Z,39.10
2018-07-21T08:13:01.118Z,37.20
2018-07-21T08:15:32.499Z,36.80
2018-07-21T08:18:09.415Z,36.40
2018-07-21T08:20:42.125Z,36.60
2018-07-21T08:23:17.604Z,36.90
2018-07-21T08:25:52.130Z,36.90
2018-07-21T08:28:27.874Z,36.90
2018-07-21T08:31:03.078Z,37.40
2018-07-21T08:33:33.217Z,36.80
2018-07-21T08:36:03.748Z,36.00
2018-07-21T09:45:27.924Z,52.20
2018-07-21T09:51:53.692Z,49.70
2018-07-21T09:58:05.231Z,38.90
2018-07-21T10:00:40.154Z,35.50
2018-07-21T10:03:10.522Z,35.20
2018-07-21T10:05:43.382Z,35.60
2018-07-21T10:08:13.584Z,34.60
2018-07-21T10:10:45.712Z,36.10
2018-07-21T10:13:16.388Z,35.90
2018-07-21T10:15:47.727Z,34.20
2018-07-21T10:18:17.641Z,35.50
2018-07-21T10:20:49.408Z,35.80
2018-07-21T10:30:19.281Z,34.00
2018-07-21T10:32:49.172Z,35.00
2018-07-21T10:35:19.043Z,36.10
2018-07-21T10:37:49.129Z,35.50
2018-07-21T10:40:21.975Z,35.50
2018-07-21T10:42:52.497Z,36.10
2018-07-21T10:45:22.471Z,37.20
2018-07-21T10:47:52.682Z,38.20
2018-07-21T10:50:22.751Z,38.30
2018-07-21T10:52:53.408Z,39.20
2018-07-21T10:55:23.337Z,38.90
2018-07-21T10:57:53.532Z,38.40
2018-07-21T11:00:23.724Z,38.30
2018-07-21T11:02:54.188Z,39.50
2018-07-21T11:05:24.252Z,39.10
2018-07-21T11:07:54.344Z,39.90
2018-07-21T11:10:24.166Z,40.50
2018-07-21T11:12:54.817Z,41.20
2018-07-21T11:15:24.872Z,41.60
2018-07-21T11:17:54.858Z,42.50
2018-07-21T11:20:25.401Z,42.80
2018-07-21T11:22:55.446Z,42.80
2018-07-21T11:25:25.441Z,42.10
2018-07-21T11:27:55.361Z,42.00
2018-07-21T11:30:25.490Z,42.70
2018-07-21T11:32:55.516Z,42.70
2018-07-21T11:35:25.617Z,41.90
2018-07-21T11:37:56.960Z,41.20
2018-07-21T11:40:27.027Z,40.40
2018-07-21T11:42:57.250Z,40.40
2018-07-21T11:45:27.238Z,39.70
2018-07-21T11:47:57.578Z,40.40
2018-07-21T11:50:28.749Z,40.90
2018-07-21T11:53:01.191Z,40.50
2018-07-21T11:55:31.881Z,40.90
2018-07-21T11:58:02.441Z,40.00
2018-07-21T12:00:32.669Z,39.60
2018-07-21T12:03:02.517Z,40.00
2018-07-21T12:05:33.507Z,39.20
2018-07-21T12:08:03.436Z,38.60
2018-07-21T12:10:33.478Z,38.00
2018-07-21T12:13:05.154Z,38.10
2018-07-21T12:15:38.500Z,38.60
2018-07-21T12:18:08.854Z,38.10
2018-07-21T12:20:38.886Z,37.60
2018-07-21T12:23:09.161Z,38.00
2018-07-21T12:25:40.957Z,38.80
2018-07-21T12:28:10.947Z,37.70
2018-07-21T12:30:41.653Z,37.50
2018-07-21T12:33:11.859Z,38.40
2018-07-21T12:35:41.823Z,38.00
2018-07-21T12:38:12.960Z,37.90
2018-07-21T12:40:43.767Z,37.50
2018-07-21T12:43:13.665Z,38.50
2018-07-21T12:45:45.346Z,38.00
2018-07-21T12:48:16.922Z,38.50
2018-07-21T12:50:47.354Z,38.90
2018-07-21T12:53:18.586Z,39.20
2018-07-21T12:55:48.582Z,39.40
2018-07-21T12:58:18.492Z,39.10
2018-07-21T13:00:50.725Z,39.00
2018-07-21T13:03:20.907Z,39.00
2018-07-21T13:05:56.222Z,38.40
2018-07-21T13:08:27.399Z,38.30
2018-07-21T13:10:57.779Z,37.70
2018-07-21T13:13:27.614Z,37.70
2018-07-21T13:15:57.497Z,37.40
2018-07-21T13:18:27.539Z,37.10
2018-07-21T13:20:57.480Z,37.40
2018-07-21T13:23:29.322Z,36.80
2018-07-21T13:25:59.542Z,36.80
2018-07-21T13:28:30.890Z,35.90
2018-07-21T13:31:01.037Z,36.90
2018-07-21T13:33:31.331Z,36.50
2018-07-21T13:36:01.345Z,37.70
2018-07-21T13:38:32.113Z,37.80
2018-07-21T13:41:02.133Z,38.10
2018-07-21T13:43:33.273Z,37.70
2018-07-21T13:46:03.742Z,37.40
2018-07-21T13:48:35.513Z,37.40
2018-07-21T13:51:06.192Z,37.70
2018-07-21T13:53:36.328Z,37.40
2018-07-21T13:56:08.069Z,38.10
2018-07-21T13:58:38.152Z,39.00
2018-07-21T14:01:09.590Z,38.70
2018-07-21T14:03:40.036Z,38.40
2018-07-21T14:06:10.849Z,38.50
2018-07-21T14:08:40.705Z,38.50
2018-07-21T14:11:10.843Z,38.40
2018-07-21T14:13:41.399Z,38.10
2018-07-21T14:16:11.565Z,38.40
2018-07-21T14:18:41.581Z,37.70
2018-07-21T14:21:15.513Z,37.90
2018-07-21T14:23:45.337Z,37.90
2018-07-21T14:26:15.130Z,38.00
2018-07-21T14:28:45.836Z,37.40
2018-07-21T14:31:15.797Z,37.80
2018-07-21T14:33:46.852Z,38.20
2018-07-21T14:36:17.883Z,38.20
2018-07-21T14:38:50.462Z,37.60
2018-07-21T14:41:20.402Z,37.20
2018-07-21T14:43:50.292Z,37.90
2018-07-21T14:46:22.023Z,37.80
2018-07-21T14:48:54.618Z,37.80
2018-07-21T14:51:25.815Z,37.60
2018-07-21T14:53:56.420Z,37.30
2018-07-21T14:56:27.009Z,37.90
2018-07-21T14:58:57.542Z,38.30
2018-07-21T15:01:28.423Z,37.70
2018-07-21T15:03:58.703Z,37.70
2018-07-21T15:06:28.972Z,38.80
2018-07-21T15:08:59.293Z,37.80
2018-07-21T15:11:29.366Z,37.70
2018-07-21T15:13:59.357Z,37.80
2018-07-21T15:16:29.355Z,37.30
2018-07-21T15:18:59.556Z,37.40
2018-07-21T15:21:29.651Z,37.80
2018-07-21T15:23:59.546Z,38.70
2018-07-21T15:26:29.468Z,38.90
2018-07-21T15:28:59.558Z,38.90
2018-07-21T15:31:29.466Z,39.20
2018-07-21T15:36:32.111Z,46.30
2018-07-21T15:39:02.131Z,48.60
2018-07-21T15:44:01.676Z,48.70
2018-07-21T15:46:31.627Z,48.50
2018-07-21T15:59:02.052Z,50.30
2018-07-21T16:01:33.866Z,48.80
2018-07-21T16:04:03.731Z,49.50
2018-07-21T16:06:33.744Z,49.00
2018-07-21T16:24:02.672Z,46.30
2018-07-21T16:31:31.331Z,43.00
2018-07-21T16:34:01.266Z,40.70
2018-07-21T16:36:31.586Z,40.60
2018-07-21T16:39:01.469Z,40.80
2018-07-21T16:41:31.927Z,40.90
2018-07-21T16:44:01.916Z,40.60
2018-07-21T16:46:32.242Z,40.40
2018-07-21T16:49:02.045Z,40.50
2018-07-21T16:51:32.071Z,40.60
2018-07-21T16:54:01.969Z,40.90
2018-07-21T16:56:32.341Z,41.30
2018-07-21T16:59:02.442Z,41.50
2018-07-21T17:01:33.597Z,41.50
2018-07-21T17:04:03.732Z,41.60
2018-07-21T17:06:33.823Z,41.20
2018-07-21T17:09:03.876Z,41.50
2018-07-21T17:11:35.524Z,41.20
2018-07-21T17:14:06.608Z,41.50
2018-07-21T17:16:36.437Z,41.50
2018-07-21T17:19:06.778Z,42.20
2018-07-21T17:21:36.959Z,41.40
2018-07-21T17:24:06.822Z,41.60
2018-07-21T17:26:36.729Z,41.60
2018-07-21T17:29:06.725Z,41.10
2018-07-21T17:31:36.674Z,40.80
2018-07-21T17:34:06.490Z,40.40
2018-07-21T17:36:36.509Z,40.40
2018-07-21T17:39:09.698Z,40.00
2018-07-21T17:41:39.514Z,39.70
2018-07-21T17:44:09.859Z,39.40
2018-07-21T17:46:39.646Z,39.20
2018-07-21T17:49:09.610Z,39.20
2018-07-21T17:51:39.685Z,39.00
2018-07-21T17:54:09.751Z,39.00
2018-07-21T17:56:40.612Z,39.10
2018-07-21T17:59:11.071Z,39.20
2018-07-21T18:01:41.120Z,39.00
2018-07-21T18:04:11.044Z,39.30
2018-07-21T18:06:41.008Z,39.40
2018-07-21T18:09:11.701Z,39.40
2018-07-21T18:11:41.681Z,39.40
2018-07-21T18:14:11.460Z,39.30
2018-07-21T18:16:41.388Z,39.60
2018-07-21T18:19:11.391Z,39.70
2018-07-21T18:21:41.133Z,40.00
2018-07-21T18:24:10.913Z,40.20
2018-07-21T18:29:11.086Z,40.30
2018-07-21T18:31:40.919Z,40.30
2018-07-21T18:34:11.509Z,40.50
2018-07-21T18:36:42.101Z,40.60
2018-07-21T18:39:13.171Z,40.70
2018-07-21T18:41:43.813Z,41.00
2018-07-21T18:44:14.057Z,40.90
2018-07-21T18:46:44.735Z,41.00
2018-07-21T18:49:14.623Z,40.80
2018-07-21T18:51:44.653Z,40.80
2018-07-21T18:54:15.032Z,40.90
2018-07-21T18:56:44.978Z,40.90
2018-07-21T18:59:16.131Z,41.00
2018-07-21T19:01:46.593Z,41.10
2018-07-21T19:04:16.461Z,41.20
2018-07-21T19:06:46.289Z,41.40
2018-07-21T19:09:16.124Z,41.60
2018-07-21T19:11:49.984Z,41.70
2018-07-21T19:14:19.880Z,41.80
2018-07-21T19:16:51.025Z,41.90
2018-07-21T19:19:20.745Z,41.80
2018-07-21T19:21:51.846Z,41.90
2018-07-21T19:24:23.298Z,42.20
2018-07-21T19:26:59.184Z,42.50
2018-07-21T19:29:29.444Z,42.40
2018-07-21T19:32:04.615Z,42.30
2018-07-21T19:34:34.228Z,42.30
2018-07-21T19:42:07.029Z,42.40
2018-07-21T19:44:36.902Z,42.20
2018-07-21T19:47:07.034Z,42.30
2018-07-21T19:49:37.666Z,42.00
2018-07-21T19:52:07.566Z,42.50
2018-07-21T19:54:38.306Z,42.70
2018-07-21T19:57:08.301Z,42.90
2018-07-21T19:59:38.345Z,43.20
2018-07-21T20:02:08.476Z,43.60
2018-07-21T20:04:38.280Z,43.60
2018-07-21T20:07:08.081Z,44.00
2018-07-21T20:09:39.054Z,44.00
2018-07-21T20:14:39.056Z,43.90
2018-07-21T20:17:08.801Z,44.00
2018-07-21T20:19:38.578Z,44.00
2018-07-21T20:22:08.541Z,44.30
2018-07-21T20:24:38.609Z,44.60
2018-07-21T20:27:08.759Z,44.70
2018-07-21T20:29:38.645Z,44.80
2018-07-21T20:32:08.624Z,44.90
2018-07-21T20:34:38.437Z,45.10
2018-07-21T20:37:08.368Z,45.30
2018-07-21T20:39:38.279Z,45.30
2018-07-21T20:42:08.143Z,45.20
2018-07-21T20:44:37.908Z,45.20
2018-07-21T20:47:08.489Z,45.40
2018-07-21T20:49:39.141Z,45.50
2018-07-21T20:52:09.604Z,45.40
2018-07-21T20:54:40.174Z,45.30
2018-07-21T20:57:11.379Z,45.20
2018-07-21T20:59:41.247Z,45.30
2018-07-21T21:02:11.140Z,44.90
2018-07-21T21:04:41.329Z,45.10
2018-07-21T21:07:11.242Z,45.00
2018-07-21T21:09:41.929Z,45.00
2018-07-21T21:12:12.136Z,44.60
2018-07-21T21:14:42.001Z,44.70
2018-07-21T21:17:13.538Z,44.60
2018-07-21T21:19:43.414Z,44.10
2018-07-21T21:22:13.908Z,44.00
2018-07-21T21:24:45.686Z,43.70
2018-07-21T21:27:15.648Z,43.80
2018-07-21T21:29:45.393Z,43.60
2018-07-21T21:32:16.356Z,43.10
2018-07-21T21:34:46.998Z,43.30
2018-07-21T21:37:16.833Z,43.40
2018-07-21T21:39:46.546Z,43.40
2018-07-21T21:42:16.499Z,43.30
2018-07-21T21:44:47.054Z,43.50
2018-07-21T21:47:16.907Z,43.70
2018-07-21T21:49:46.733Z,43.60
2018-07-21T21:52:17.081Z,43.80
2018-07-21T21:54:46.958Z,43.80
2018-07-21T21:57:16.744Z,44.00
2018-07-21T21:59:46.931Z,44.10
2018-07-21T22:04:50.714Z,44.50
2018-07-21T22:09:50.003Z,44.60
2018-07-21T22:12:20.725Z,45.20
2018-07-21T22:14:50.572Z,46.50
2018-07-21T22:17:20.905Z,45.60
2018-07-21T22:19:50.641Z,45.50
2018-07-21T22:22:20.693Z,45.20
2018-07-21T22:24:50.571Z,45.50
2018-07-21T22:27:20.456Z,44.80
2018-07-21T22:29:50.211Z,44.60
2018-07-21T22:32:21.457Z,44.60
2018-07-21T22:34:51.214Z,44.30
2018-07-21T22:37:21.018Z,44.60
2018-07-21T22:39:51.300Z,44.50
2018-07-21T22:42:21.625Z,44.50
2018-07-21T22:44:52.309Z,44.50
2018-07-21T22:49:45.806Z,44.00
2018-07-21T22:52:15.806Z,44.70
2018-07-21T22:54:45.802Z,44.90
2018-07-21T22:57:15.698Z,44.90
2018-07-21T22:59:45.461Z,45.20
2018-07-21T23:02:15.207Z,45.20
2018-07-21T23:04:45.121Z,45.40
2018-07-21T23:07:14.965Z,45.50
2018-07-21T23:09:44.750Z,45.80
2018-07-21T23:12:14.860Z,46.00
2018-07-21T23:14:44.774Z,46.10
2018-07-21T23:17:18.173Z,46.00
2018-07-21T23:19:50.413Z,46.00
2018-07-21T23:22:20.290Z,46.30
2018-07-21T23:24:50.150Z,46.10
2018-07-21T23:27:20.078Z,46.90
2018-07-21T23:29:51.440Z,47.10
2018-07-21T23:32:21.494Z,47.40
2018-07-21T23:34:51.976Z,47.80
2018-07-21T23:37:22.374Z,47.80
2018-07-21T23:39:53.793Z,47.90
2018-07-21T23:42:23.835Z,48.30
2018-07-21T23:44:53.753Z,48.40
2018-07-21T23:50:03.545Z,48.70
2018-07-21T23:52:34.534Z,48.90
2018-07-21T23:55:05.702Z,49.00
2018-07-21T23:57:35.671Z,49.20
